メインページ
METAR-TAF:

METAR-TAF

空港 :

T・F・グリーン空港

プロビデンス, ロードアイランド州, アメリカ合衆国

緯度: 41-43-26N, 経度: 071-25-41W, 海抜: 16m

現時点の気象観測

当レポートは29分前の01:51(UTC)に作成
南西の風 7kt
気温 4°C
湿度 52%
気圧 1019 hPa
視程: 16.1km
晴天

METAR: KPVD 240151Z 23007KT 10SM CLR 04/M05 A3010 RMK AO2 SLP194 T00391050

時間: 21:20 (02:20 UTC)

予報

当レポートは2時間49分前の23:31(UTC)に作成
予報は24日の 00時(UTC)から 24日の 24時(UTC)まで有効
南/南西の風 5kt
視程: 10km
高度25000ftの雲は散在している
24日の 1500時(UTC)から
南/南西の風 10kt
視程: 10km
高度25000ftの雲は散在している
24日の 2300時(UTC)から
南/南西の風 7kt
視程: 10km
高度25000ftの千切れ雲あり

TAF: KPVD 232331Z 2400/2424 21005KT P6SM SCT250 FM241500 21010KT P6SM SCT250 FM242300 20007KT P6SM BKN250

4,000以上の空港の気象観測と天気予報(METAR報とTAF報)

利用可能な観測所は地図上に黄色い丸と赤い丸で示す。

丸の上にカーソルを重ねると観測所名を参照できる。

次にクリックすると気象観測と天気予報を参照できる。

マップの切り替え:黒色「×」印の緑ボタンをクリックして拡大、「-」印の緑ボタンをクリックして縮小、緑色の三角印をクリックして隣りの地図に切り替え


METAR-TAF: